sensor_id;sensor_type;location;lat;lon;timestamp;temperature;humidity
46562;DHT22;32289;42.688;23.330;2023-12-28T00:00:26;3.40;99.90
46562;DHT22;32289;42.688;23.330;2023-12-28T00:04:07;3.30;99.90
46562;DHT22;32289;42.688;23.330;2023-12-28T00:07:47;3.00;99.90
46562;DHT22;32289;42.688;23.330;2023-12-28T00:11:28;3.30;99.90
46562;DHT22;32289;42.688;23.330;2023-12-28T00:15:09;3.00;99.90
46562;DHT22;32289;42.688;23.330;2023-12-28T00:18:50;2.70;99.90
46562;DHT22;32289;42.688;23.330;2023-12-28T00:22:31;2.60;99.90
46562;DHT22;32289;42.688;23.330;2023-12-28T00:26:11;2.90;99.90
46562;DHT22;32289;42.688;23.330;2023-12-28T00:29:52;2.90;99.90
46562;DHT22;32289;42.688;23.330;2023-12-28T00:33:33;2.90;99.90
46562;DHT22;32289;42.688;23.330;2023-12-28T00:37:14;3.00;99.90
46562;DHT22;32289;42.688;23.330;2023-12-28T00:40:54;3.00;99.90
46562;DHT22;32289;42.688;23.330;2023-12-28T00:44:35;2.60;99.90
46562;DHT22;32289;42.688;23.330;2023-12-28T00:48:16;2.50;99.90
46562;DHT22;32289;42.688;23.330;2023-12-28T00:51:56;2.30;99.90
46562;DHT22;32289;42.688;23.330;2023-12-28T00:55:37;2.40;99.90
46562;DHT22;32289;42.688;23.330;2023-12-28T00:59:18;2.70;99.90
46562;DHT22;32289;42.688;23.330;2023-12-28T01:02:59;2.90;99.90
46562;DHT22;32289;42.688;23.330;2023-12-28T01:06:39;2.70;99.90
46562;DHT22;32289;42.688;23.330;2023-12-28T01:10:21;2.50;99.90
46562;DHT22;32289;42.688;23.330;2023-12-28T01:14:01;2.50;99.90
46562;DHT22;32289;42.688;23.330;2023-12-28T01:17:43;2.40;99.90
46562;DHT22;32289;42.688;23.330;2023-12-28T01:21:24;2.50;99.90
46562;DHT22;32289;42.688;23.330;2023-12-28T01:25:05;2.60;99.90
46562;DHT22;32289;42.688;23.330;2023-12-28T01:28:46;2.30;99.90
46562;DHT22;32289;42.688;23.330;2023-12-28T01:32:27;2.10;99.90
46562;DHT22;32289;42.688;23.330;2023-12-28T01:36:26;2.20;99.90
46562;DHT22;32289;42.688;23.330;2023-12-28T01:40:10;2.30;99.90
46562;DHT22;32289;42.688;23.330;2023-12-28T01:43:51;2.10;99.90
46562;DHT22;32289;42.688;23.330;2023-12-28T01:47:31;1.90;99.90
46562;DHT22;32289;42.688;23.330;2023-12-28T01:51:14;1.90;99.90
46562;DHT22;32289;42.688;23.330;2023-12-28T01:54:55;2.20;99.90
46562;DHT22;32289;42.688;23.330;2023-12-28T01:58:36;2.30;99.90
46562;DHT22;32289;42.688;23.330;2023-12-28T02:02:18;2.10;99.90
46562;DHT22;32289;42.688;23.330;2023-12-28T02:06:00;1.90;99.90
46562;DHT22;32289;42.688;23.330;2023-12-28T02:09:41;1.80;99.90
46562;DHT22;32289;42.688;23.330;2023-12-28T02:13:23;1.80;99.90
46562;DHT22;32289;42.688;23.330;2023-12-28T02:17:10;1.90;99.90
46562;DHT22;32289;42.688;23.330;2023-12-28T02:20:54;1.90;99.90
46562;DHT22;32289;42.688;23.330;2023-12-28T02:25:11;2.10;99.90
46562;DHT22;32289;42.688;23.330;2023-12-28T02:28:57;2.10;99.90
46562;DHT22;32289;42.688;23.330;2023-12-28T02:36:41;1.70;99.90
46562;DHT22;32289;42.688;23.330;2023-12-28T02:40:24;1.60;99.90
46562;DHT22;32289;42.688;23.330;2023-12-28T02:44:05;1.50;99.90
46562;DHT22;32289;42.688;23.330;2023-12-28T02:47:46;1.50;99.90
46562;DHT22;32289;42.688;23.330;2023-12-28T02:51:27;1.60;99.90
46562;DHT22;32289;42.688;23.330;2023-12-28T02:55:08;1.70;99.90
46562;DHT22;32289;42.688;23.330;2023-12-28T02:58:49;1.50;99.90
46562;DHT22;32289;42.688;23.330;2023-12-28T03:02:29;1.40;99.90
46562;DHT22;32289;42.688;23.330;2023-12-28T03:06:10;1.40;99.90
46562;DHT22;32289;42.688;23.330;2023-12-28T03:09:51;1.60;99.90
46562;DHT22;32289;42.688;23.330;2023-12-28T03:13:31;1.70;99.90
46562;DHT22;32289;42.688;23.330;2023-12-28T03:17:12;1.60;99.90
46562;DHT22;32289;42.688;23.330;2023-12-28T03:20:56;1.30;99.90
46562;DHT22;32289;42.688;23.330;2023-12-28T03:24:37;1.10;99.90
46562;DHT22;32289;42.688;23.330;2023-12-28T03:28:19;1.00;99.90
46562;DHT22;32289;42.688;23.330;2023-12-28T03:32:04;1.20;99.90
46562;DHT22;32289;42.688;23.330;2023-12-28T03:35:45;1.20;99.90
46562;DHT22;32289;42.688;23.330;2023-12-28T03:39:26;1.20;99.90
46562;DHT22;32289;42.688;23.330;2023-12-28T03:43:06;1.10;99.90
46562;DHT22;32289;42.688;23.330;2023-12-28T03:46:51;1.20;99.90
46562;DHT22;32289;42.688;23.330;2023-12-28T03:50:31;1.30;99.90
46562;DHT22;32289;42.688;23.330;2023-12-28T03:54:15;1.40;99.90
46562;DHT22;32289;42.688;23.330;2023-12-28T03:57:56;1.40;99.90
46562;DHT22;32289;42.688;23.330;2023-12-28T04:01:36;1.40;99.90
46562;DHT22;32289;42.688;23.330;2023-12-28T04:05:17;1.50;99.90
46562;DHT22;32289;42.688;23.330;2023-12-28T04:08:58;1.30;99.90
46562;DHT22;32289;42.688;23.330;2023-12-28T04:12:38;1.30;99.90
46562;DHT22;32289;42.688;23.330;2023-12-28T04:16:19;1.40;99.90
46562;DHT22;32289;42.688;23.330;2023-12-28T04:20:00;1.50;99.90
46562;DHT22;32289;42.688;23.330;2023-12-28T04:23:41;1.50;99.90
46562;DHT22;32289;42.688;23.330;2023-12-28T04:27:22;1.60;99.90
46562;DHT22;32289;42.688;23.330;2023-12-28T04:31:04;1.50;99.90
46562;DHT22;32289;42.688;23.330;2023-12-28T04:34:44;1.30;99.90
46562;DHT22;32289;42.688;23.330;2023-12-28T04:38:25;1.30;99.90
46562;DHT22;32289;42.688;23.330;2023-12-28T04:42:06;1.30;99.90
46562;DHT22;32289;42.688;23.330;2023-12-28T04:45:47;1.30;99.90
46562;DHT22;32289;42.688;23.330;2023-12-28T04:49:28;1.20;99.90
46562;DHT22;32289;42.688;23.330;2023-12-28T04:53:08;1.20;99.90
46562;DHT22;32289;42.688;23.330;2023-12-28T04:56:49;1.00;99.90
46562;DHT22;32289;42.688;23.330;2023-12-28T05:00:30;0.90;99.90
46562;DHT22;32289;42.688;23.330;2023-12-28T05:04:11;1.00;99.90
46562;DHT22;32289;42.688;23.330;2023-12-28T05:07:52;1.00;99.90
46562;DHT22;32289;42.688;23.330;2023-12-28T05:11:33;0.90;99.90
46562;DHT22;32289;42.688;23.330;2023-12-28T05:15:14;0.50;99.90
46562;DHT22;32289;42.688;23.330;2023-12-28T05:18:54;0.80;99.90
46562;DHT22;32289;42.688;23.330;2023-12-28T05:22:35;0.80;99.90
46562;DHT22;32289;42.688;23.330;2023-12-28T05:26:16;0.80;99.90
46562;DHT22;32289;42.688;23.330;2023-12-28T05:29:56;0.90;99.90
46562;DHT22;32289;42.688;23.330;2023-12-28T05:33:37;0.90;99.90
46562;DHT22;32289;42.688;23.330;2023-12-28T05:37:17;0.70;99.90
46562;DHT22;32289;42.688;23.330;2023-12-28T05:40:58;0.70;99.90
46562;DHT22;32289;42.688;23.330;2023-12-28T05:44:39;0.80;99.90
46562;DHT22;32289;42.688;23.330;2023-12-28T05:48:19;0.70;99.90
46562;DHT22;32289;42.688;23.330;2023-12-28T05:52:00;0.70;99.90
46562;DHT22;32289;42.688;23.330;2023-12-28T05:55:41;0.70;99.90
46562;DHT22;32289;42.688;23.330;2023-12-28T05:59:22;0.80;99.90
46562;DHT22;32289;42.688;23.330;2023-12-28T06:03:03;0.70;99.90
46562;DHT22;32289;42.688;23.330;2023-12-28T06:06:44;0.80;99.90
46562;DHT22;32289;42.688;23.330;2023-12-28T06:10:24;0.90;99.90
46562;DHT22;32289;42.688;23.330;2023-12-28T06:14:05;0.90;99.90
46562;DHT22;32289;42.688;23.330;2023-12-28T06:17:46;0.90;99.90
46562;DHT22;32289;42.688;23.330;2023-12-28T06:21:27;0.80;99.90
46562;DHT22;32289;42.688;23.330;2023-12-28T06:25:11;0.90;99.90
46562;DHT22;32289;42.688;23.330;2023-12-28T06:28:53;1.00;99.90
46562;DHT22;32289;42.688;23.330;2023-12-28T06:32:34;1.10;99.90
46562;DHT22;32289;42.688;23.330;2023-12-28T06:36:17;1.10;99.90
46562;DHT22;32289;42.688;23.330;2023-12-28T06:39:58;1.00;99.90
46562;DHT22;32289;42.688;23.330;2023-12-28T06:43:39;1.10;99.90
46562;DHT22;32289;42.688;23.330;2023-12-28T06:47:19;1.10;99.90
46562;DHT22;32289;42.688;23.330;2023-12-28T06:51:00;1.20;99.90
46562;DHT22;32289;42.688;23.330;2023-12-28T06:54:41;1.30;99.90
46562;DHT22;32289;42.688;23.330;2023-12-28T06:58:22;1.30;99.90
46562;DHT22;32289;42.688;23.330;2023-12-28T07:02:02;1.10;99.90
46562;DHT22;32289;42.688;23.330;2023-12-28T07:05:43;1.40;99.90
46562;DHT22;32289;42.688;23.330;2023-12-28T07:09:24;1.30;99.90
46562;DHT22;32289;42.688;23.330;2023-12-28T07:13:04;1.30;99.90
46562;DHT22;32289;42.688;23.330;2023-12-28T07:16:45;1.50;99.90
46562;DHT22;32289;42.688;23.330;2023-12-28T07:20:26;1.60;99.90
46562;DHT22;32289;42.688;23.330;2023-12-28T07:24:06;1.70;99.90
46562;DHT22;32289;42.688;23.330;2023-12-28T07:27:47;1.80;99.90
46562;DHT22;32289;42.688;23.330;2023-12-28T07:31:28;1.70;99.90
46562;DHT22;32289;42.688;23.330;2023-12-28T07:35:09;1.70;99.90
46562;DHT22;32289;42.688;23.330;2023-12-28T07:38:50;1.90;99.90
46562;DHT22;32289;42.688;23.330;2023-12-28T07:42:30;2.10;99.90
46562;DHT22;32289;42.688;23.330;2023-12-28T07:46:11;2.20;99.90
46562;DHT22;32289;42.688;23.330;2023-12-28T07:49:52;2.30;99.90
46562;DHT22;32289;42.688;23.330;2023-12-28T07:53:33;2.40;99.90
46562;DHT22;32289;42.688;23.330;2023-12-28T07:57:13;2.60;99.90
46562;DHT22;32289;42.688;23.330;2023-12-28T08:00:54;2.60;99.90
46562;DHT22;32289;42.688;23.330;2023-12-28T08:04:35;2.80;99.90
46562;DHT22;32289;42.688;23.330;2023-12-28T08:08:16;2.90;99.90
46562;DHT22;32289;42.688;23.330;2023-12-28T08:11:56;3.00;99.90
46562;DHT22;32289;42.688;23.330;2023-12-28T08:15:37;3.10;99.90
46562;DHT22;32289;42.688;23.330;2023-12-28T08:19:18;3.10;99.90
46562;DHT22;32289;42.688;23.330;2023-12-28T08:23:00;3.30;99.90
46562;DHT22;32289;42.688;23.330;2023-12-28T08:26:41;3.50;99.90
46562;DHT22;32289;42.688;23.330;2023-12-28T08:30:22;3.70;99.90
46562;DHT22;32289;42.688;23.330;2023-12-28T08:34:03;3.80;99.90
46562;DHT22;32289;42.688;23.330;2023-12-28T08:37:43;3.70;99.90
46562;DHT22;32289;42.688;23.330;2023-12-28T08:41:26;3.90;99.90
46562;DHT22;32289;42.688;23.330;2023-12-28T08:45:07;4.10;99.90
46562;DHT22;32289;42.688;23.330;2023-12-28T08:48:48;4.20;99.90
46562;DHT22;32289;42.688;23.330;2023-12-28T08:52:29;4.90;99.90
46562;DHT22;32289;42.688;23.330;2023-12-28T08:56:20;9.50;92.50
46562;DHT22;32289;42.688;23.330;2023-12-28T09:00:00;12.20;74.20
46562;DHT22;32289;42.688;23.330;2023-12-28T09:03:43;12.60;68.20
46562;DHT22;32289;42.688;23.330;2023-12-28T09:07:24;12.90;66.00
46562;DHT22;32289;42.688;23.330;2023-12-28T09:11:10;13.00;66.50
46562;DHT22;32289;42.688;23.330;2023-12-28T09:14:50;13.90;62.80
46562;DHT22;32289;42.688;23.330;2023-12-28T09:18:34;12.40;64.10
46562;DHT22;32289;42.688;23.330;2023-12-28T09:22:18;11.50;65.40
46562;DHT22;32289;42.688;23.330;2023-12-28T09:26:03;12.10;64.40
46562;DHT22;32289;42.688;23.330;2023-12-28T09:29:44;10.40;68.30
46562;DHT22;32289;42.688;23.330;2023-12-28T09:33:24;9.80;69.40
46562;DHT22;32289;42.688;23.330;2023-12-28T09:37:05;10.50;71.50
46562;DHT22;32289;42.688;23.330;2023-12-28T09:40:46;10.90;72.50
46562;DHT22;32289;42.688;23.330;2023-12-28T09:44:29;10.90;73.10
46562;DHT22;32289;42.688;23.330;2023-12-28T09:48:13;10.90;72.20
46562;DHT22;32289;42.688;23.330;2023-12-28T09:51:58;11.60;69.90
46562;DHT22;32289;42.688;23.330;2023-12-28T09:55:43;11.80;68.40
46562;DHT22;32289;42.688;23.330;2023-12-28T09:59:27;11.20;67.30
46562;DHT22;32289;42.688;23.330;2023-12-28T10:03:08;10.60;68.40
46562;DHT22;32289;42.688;23.330;2023-12-28T10:06:49;11.50;68.30
46562;DHT22;32289;42.688;23.330;2023-12-28T10:10:31;11.90;67.50
46562;DHT22;32289;42.688;23.330;2023-12-28T10:14:12;12.30;67.70
46562;DHT22;32289;42.688;23.330;2023-12-28T10:17:53;12.50;67.20
46562;DHT22;32289;42.688;23.330;2023-12-28T10:21:34;12.60;67.80
46562;DHT22;32289;42.688;23.330;2023-12-28T10:25:15;13.00;65.90
46562;DHT22;32289;42.688;23.330;2023-12-28T10:28:59;13.20;66.20
46562;DHT22;32289;42.688;23.330;2023-12-28T10:32:43;13.00;67.20
46562;DHT22;32289;42.688;23.330;2023-12-28T10:36:27;12.40;68.70
46562;DHT22;32289;42.688;23.330;2023-12-28T10:40:17;12.60;70.00
46562;DHT22;32289;42.688;23.330;2023-12-28T10:44:03;12.20;69.80
46562;DHT22;32289;42.688;23.330;2023-12-28T10:47:51;12.00;70.60
46562;DHT22;32289;42.688;23.330;2023-12-28T10:51:40;11.80;71.60
46562;DHT22;32289;42.688;23.330;2023-12-28T10:55:39;11.40;73.20
46562;DHT22;32289;42.688;23.330;2023-12-28T10:59:39;11.50;73.30
46562;DHT22;32289;42.688;23.330;2023-12-28T11:03:28;10.90;74.20
46562;DHT22;32289;42.688;23.330;2023-12-28T11:07:10;11.20;73.80
46562;DHT22;32289;42.688;23.330;2023-12-28T11:10:54;11.50;71.80
46562;DHT22;32289;42.688;23.330;2023-12-28T11:14:42;11.10;73.00
46562;DHT22;32289;42.688;23.330;2023-12-28T11:18:23;10.80;73.90
46562;DHT22;32289;42.688;23.330;2023-12-28T11:22:05;11.20;72.70
46562;DHT22;32289;42.688;23.330;2023-12-28T11:25:47;10.80;74.20
46562;DHT22;32289;42.688;23.330;2023-12-28T11:29:29;11.60;73.50
46562;DHT22;32289;42.688;23.330;2023-12-28T11:33:12;12.40;68.10
46562;DHT22;32289;42.688;23.330;2023-12-28T11:36:55;11.30;71.60
46562;DHT22;32289;42.688;23.330;2023-12-28T11:40:44;11.40;72.20
46562;DHT22;32289;42.688;23.330;2023-12-28T11:44:30;10.70;74.20
46562;DHT22;32289;42.688;23.330;2023-12-28T11:48:14;10.70;74.80
46562;DHT22;32289;42.688;23.330;2023-12-28T11:52:02;11.00;73.60
46562;DHT22;32289;42.688;23.330;2023-12-28T11:55:45;11.20;72.60
46562;DHT22;32289;42.688;23.330;2023-12-28T11:59:26;11.20;72.20
46562;DHT22;32289;42.688;23.330;2023-12-28T12:03:13;11.20;73.00
46562;DHT22;32289;42.688;23.330;2023-12-28T12:06:55;11.80;72.40
46562;DHT22;32289;42.688;23.330;2023-12-28T12:10:42;12.50;68.10
46562;DHT22;32289;42.688;23.330;2023-12-28T12:14:23;12.80;66.20
46562;DHT22;32289;42.688;23.330;2023-12-28T12:18:04;12.00;68.20
46562;DHT22;32289;42.688;23.330;2023-12-28T12:21:45;11.20;70.90
46562;DHT22;32289;42.688;23.330;2023-12-28T12:25:28;10.70;73.00
46562;DHT22;32289;42.688;23.330;2023-12-28T12:29:09;10.90;73.60
46562;DHT22;32289;42.688;23.330;2023-12-28T12:32:51;11.30;72.20
46562;DHT22;32289;42.688;23.330;2023-12-28T12:36:32;11.30;72.10
46562;DHT22;32289;42.688;23.330;2023-12-28T12:40:13;11.40;71.50
46562;DHT22;32289;42.688;23.330;2023-12-28T12:43:56;11.70;70.20
46562;DHT22;32289;42.688;23.330;2023-12-28T12:47:39;11.70;69.60
46562;DHT22;32289;42.688;23.330;2023-12-28T12:51:20;11.50;70.40
46562;DHT22;32289;42.688;23.330;2023-12-28T12:55:01;11.20;71.40
46562;DHT22;32289;42.688;23.330;2023-12-28T12:58:46;11.40;70.60
46562;DHT22;32289;42.688;23.330;2023-12-28T13:02:27;11.80;69.70
46562;DHT22;32289;42.688;23.330;2023-12-28T13:06:15;11.40;70.50
46562;DHT22;32289;42.688;23.330;2023-12-28T13:09:56;11.10;71.40
46562;DHT22;32289;42.688;23.330;2023-12-28T13:13:36;10.80;72.80
46562;DHT22;32289;42.688;23.330;2023-12-28T13:17:17;10.90;73.30
46562;DHT22;32289;42.688;23.330;2023-12-28T13:21:00;10.70;73.90
46562;DHT22;32289;42.688;23.330;2023-12-28T13:24:43;11.20;72.80
46562;DHT22;32289;42.688;23.330;2023-12-28T13:28:24;11.10;71.20
46562;DHT22;32289;42.688;23.330;2023-12-28T13:32:05;11.20;71.80
46562;DHT22;32289;42.688;23.330;2023-12-28T13:35:48;11.40;70.00
46562;DHT22;32289;42.688;23.330;2023-12-28T13:39:30;11.20;70.80
46562;DHT22;32289;42.688;23.330;2023-12-28T13:43:11;10.90;71.50
46562;DHT22;32289;42.688;23.330;2023-12-28T13:46:51;10.90;71.30
46562;DHT22;32289;42.688;23.330;2023-12-28T13:50:34;11.10;71.40
46562;DHT22;32289;42.688;23.330;2023-12-28T13:54:18;11.10;70.50
46562;DHT22;32289;42.688;23.330;2023-12-28T13:58:00;10.90;71.30
46562;DHT22;32289;42.688;23.330;2023-12-28T14:01:40;10.90;71.80
46562;DHT22;32289;42.688;23.330;2023-12-28T14:05:22;10.80;72.50
46562;DHT22;32289;42.688;23.330;2023-12-28T14:09:04;10.70;74.10
46562;DHT22;32289;42.688;23.330;2023-12-28T14:12:45;10.40;75.60
46562;DHT22;32289;42.688;23.330;2023-12-28T14:16:25;10.20;77.60
46562;DHT22;32289;42.688;23.330;2023-12-28T14:20:06;10.30;78.20
46562;DHT22;32289;42.688;23.330;2023-12-28T14:23:50;10.30;78.90
46562;DHT22;32289;42.688;23.330;2023-12-28T14:27:32;10.10;82.30
46562;DHT22;32289;42.688;23.330;2023-12-28T14:31:13;10.10;82.10
46562;DHT22;32289;42.688;23.330;2023-12-28T14:34:55;9.80;83.50
46562;DHT22;32289;42.688;23.330;2023-12-28T14:38:35;9.70;86.40
46562;DHT22;32289;42.688;23.330;2023-12-28T14:42:16;9.60;88.00
46562;DHT22;32289;42.688;23.330;2023-12-28T14:45:59;9.50;90.00
46562;DHT22;32289;42.688;23.330;2023-12-28T14:49:40;9.40;91.40
46562;DHT22;32289;42.688;23.330;2023-12-28T14:53:25;9.20;91.90
46562;DHT22;32289;42.688;23.330;2023-12-28T14:57:09;9.30;93.30
46562;DHT22;32289;42.688;23.330;2023-12-28T15:00:52;9.10;93.60
46562;DHT22;32289;42.688;23.330;2023-12-28T15:04:34;9.00;95.10
46562;DHT22;32289;42.688;23.330;2023-12-28T15:08:18;8.60;96.80
46562;DHT22;32289;42.688;23.330;2023-12-28T15:11:59;8.20;98.40
46562;DHT22;32289;42.688;23.330;2023-12-28T15:15:40;8.90;99.90
46562;DHT22;32289;42.688;23.330;2023-12-28T15:19:21;8.50;98.10
46562;DHT22;32289;42.688;23.330;2023-12-28T15:23:02;8.30;98.30
46562;DHT22;32289;42.688;23.330;2023-12-28T15:26:43;8.20;99.90
46562;DHT22;32289;42.688;23.330;2023-12-28T15:30:23;8.10;99.90
46562;DHT22;32289;42.688;23.330;2023-12-28T15:34:04;7.90;99.90
46562;DHT22;32289;42.688;23.330;2023-12-28T15:37:45;7.80;99.90
46562;DHT22;32289;42.688;23.330;2023-12-28T15:41:26;7.30;99.90
46562;DHT22;32289;42.688;23.330;2023-12-28T15:45:09;7.30;99.90
46562;DHT22;32289;42.688;23.330;2023-12-28T15:48:50;7.40;99.90
46562;DHT22;32289;42.688;23.330;2023-12-28T15:52:31;7.30;99.90
46562;DHT22;32289;42.688;23.330;2023-12-28T15:56:11;7.40;99.90
46562;DHT22;32289;42.688;23.330;2023-12-28T15:59:52;7.40;99.90
46562;DHT22;32289;42.688;23.330;2023-12-28T16:03:40;7.20;99.90
46562;DHT22;32289;42.688;23.330;2023-12-28T16:07:24;7.00;99.90
46562;DHT22;32289;42.688;23.330;2023-12-28T16:11:05;7.10;99.90
46562;DHT22;32289;42.688;23.330;2023-12-28T16:14:46;7.00;99.90
46562;DHT22;32289;42.688;23.330;2023-12-28T16:18:27;7.00;99.90
46562;DHT22;32289;42.688;23.330;2023-12-28T16:22:07;7.00;99.90
46562;DHT22;32289;42.688;23.330;2023-12-28T16:25:48;6.80;99.90
46562;DHT22;32289;42.688;23.330;2023-12-28T16:29:29;6.80;99.90
46562;DHT22;32289;42.688;23.330;2023-12-28T16:33:12;6.70;99.90
46562;DHT22;32289;42.688;23.330;2023-12-28T16:36:53;6.80;99.90
46562;DHT22;32289;42.688;23.330;2023-12-28T16:40:33;6.80;99.90
46562;DHT22;32289;42.688;23.330;2023-12-28T16:44:15;6.70;99.90
46562;DHT22;32289;42.688;23.330;2023-12-28T16:47:57;6.60;99.90
46562;DHT22;32289;42.688;23.330;2023-12-28T16:51:38;6.60;99.90
46562;DHT22;32289;42.688;23.330;2023-12-28T16:55:18;6.50;99.90
46562;DHT22;32289;42.688;23.330;2023-12-28T16:58:59;6.50;99.90
46562;DHT22;32289;42.688;23.330;2023-12-28T17:02:40;6.40;99.90
46562;DHT22;32289;42.688;23.330;2023-12-28T17:06:21;6.50;99.90
46562;DHT22;32289;42.688;23.330;2023-12-28T17:10:02;6.80;99.90
46562;DHT22;32289;42.688;23.330;2023-12-28T17:13:44;6.50;99.90
46562;DHT22;32289;42.688;23.330;2023-12-28T17:17:25;6.40;99.90
46562;DHT22;32289;42.688;23.330;2023-12-28T17:21:12;6.30;99.90
46562;DHT22;32289;42.688;23.330;2023-12-28T17:25:07;6.20;99.90
46562;DHT22;32289;42.688;23.330;2023-12-28T17:29:02;6.10;99.90
46562;DHT22;32289;42.688;23.330;2023-12-28T17:32:46;6.10;99.90
46562;DHT22;32289;42.688;23.330;2023-12-28T17:36:28;5.90;99.90
46562;DHT22;32289;42.688;23.330;2023-12-28T17:40:12;5.70;99.90
46562;DHT22;32289;42.688;23.330;2023-12-28T17:43:56;5.70;99.90
46562;DHT22;32289;42.688;23.330;2023-12-28T17:47:53;5.60;99.90
46562;DHT22;32289;42.688;23.330;2023-12-28T17:51:35;5.20;99.90
46562;DHT22;32289;42.688;23.330;2023-12-28T17:55:16;5.30;99.90
46562;DHT22;32289;42.688;23.330;2023-12-28T17:58:57;5.00;99.90
46562;DHT22;32289;42.688;23.330;2023-12-28T18:02:38;5.10;99.90
46562;DHT22;32289;42.688;23.330;2023-12-28T18:06:19;4.80;99.90
46562;DHT22;32289;42.688;23.330;2023-12-28T18:09:59;5.00;99.90
46562;DHT22;32289;42.688;23.330;2023-12-28T18:13:44;5.00;99.90
46562;DHT22;32289;42.688;23.330;2023-12-28T18:17:24;5.00;99.90
46562;DHT22;32289;42.688;23.330;2023-12-28T18:21:10;5.10;99.90
46562;DHT22;32289;42.688;23.330;2023-12-28T18:24:51;5.20;99.90
46562;DHT22;32289;42.688;23.330;2023-12-28T18:28:32;5.20;99.90
46562;DHT22;32289;42.688;23.330;2023-12-28T18:32:13;5.10;99.90
46562;DHT22;32289;42.688;23.330;2023-12-28T18:35:54;4.70;99.90
46562;DHT22;32289;42.688;23.330;2023-12-28T18:39:36;4.70;99.90
46562;DHT22;32289;42.688;23.330;2023-12-28T18:43:17;4.80;99.90
46562;DHT22;32289;42.688;23.330;2023-12-28T18:46:58;4.80;99.90
46562;DHT22;32289;42.688;23.330;2023-12-28T18:50:43;4.80;99.90
46562;DHT22;32289;42.688;23.330;2023-12-28T18:54:24;4.80;99.90
46562;DHT22;32289;42.688;23.330;2023-12-28T18:58:05;4.40;99.90
46562;DHT22;32289;42.688;23.330;2023-12-28T19:01:49;4.50;99.90
46562;DHT22;32289;42.688;23.330;2023-12-28T19:05:31;4.60;99.90
46562;DHT22;32289;42.688;23.330;2023-12-28T19:09:16;4.20;99.90
46562;DHT22;32289;42.688;23.330;2023-12-28T19:12:57;4.30;99.90
46562;DHT22;32289;42.688;23.330;2023-12-28T19:16:37;4.40;99.90
46562;DHT22;32289;42.688;23.330;2023-12-28T19:20:18;4.40;99.90
46562;DHT22;32289;42.688;23.330;2023-12-28T19:24:01;4.40;99.90
46562;DHT22;32289;42.688;23.330;2023-12-28T19:27:42;4.10;99.90
46562;DHT22;32289;42.688;23.330;2023-12-28T19:31:23;4.10;99.90
46562;DHT22;32289;42.688;23.330;2023-12-28T19:35:08;4.20;99.90
46562;DHT22;32289;42.688;23.330;2023-12-28T19:38:52;4.20;99.90
46562;DHT22;32289;42.688;23.330;2023-12-28T19:42:33;3.90;99.90
46562;DHT22;32289;42.688;23.330;2023-12-28T19:46:38;4.00;99.90
46562;DHT22;32289;42.688;23.330;2023-12-28T19:50:25;4.10;99.90
46562;DHT22;32289;42.688;23.330;2023-12-28T19:54:18;4.20;99.90
46562;DHT22;32289;42.688;23.330;2023-12-28T19:58:09;4.10;99.90
46562;DHT22;32289;42.688;23.330;2023-12-28T20:01:49;4.00;99.90
46562;DHT22;32289;42.688;23.330;2023-12-28T20:05:31;4.10;99.90
46562;DHT22;32289;42.688;23.330;2023-12-28T20:09:14;4.10;99.90
46562;DHT22;32289;42.688;23.330;2023-12-28T20:12:55;4.20;99.90
46562;DHT22;32289;42.688;23.330;2023-12-28T20:16:35;4.20;99.90
46562;DHT22;32289;42.688;23.330;2023-12-28T20:20:16;4.20;99.90
46562;DHT22;32289;42.688;23.330;2023-12-28T20:23:57;3.90;99.90
46562;DHT22;32289;42.688;23.330;2023-12-28T20:27:40;3.90;99.90
46562;DHT22;32289;42.688;23.330;2023-12-28T20:31:24;4.00;99.90
46562;DHT22;32289;42.688;23.330;2023-12-28T20:35:05;3.90;99.90
46562;DHT22;32289;42.688;23.330;2023-12-28T20:38:49;3.60;99.90
46562;DHT22;32289;42.688;23.330;2023-12-28T20:42:29;3.60;99.90
46562;DHT22;32289;42.688;23.330;2023-12-28T20:46:15;3.50;99.90
46562;DHT22;32289;42.688;23.330;2023-12-28T20:49:58;3.50;99.90
46562;DHT22;32289;42.688;23.330;2023-12-28T20:53:39;3.20;99.90
46562;DHT22;32289;42.688;23.330;2023-12-28T20:57:24;3.30;99.90
46562;DHT22;32289;42.688;23.330;2023-12-28T21:01:10;3.30;99.90
46562;DHT22;32289;42.688;23.330;2023-12-28T21:04:50;3.10;99.90
46562;DHT22;32289;42.688;23.330;2023-12-28T21:08:33;3.20;99.90
46562;DHT22;32289;42.688;23.330;2023-12-28T21:12:14;3.10;99.90
46562;DHT22;32289;42.688;23.330;2023-12-28T21:16:03;3.20;99.90
46562;DHT22;32289;42.688;23.330;2023-12-28T21:19:44;3.20;99.90
46562;DHT22;32289;42.688;23.330;2023-12-28T21:23:25;3.30;99.90
46562;DHT22;32289;42.688;23.330;2023-12-28T21:27:05;3.30;99.90
46562;DHT22;32289;42.688;23.330;2023-12-28T21:30:46;3.30;99.90
46562;DHT22;32289;42.688;23.330;2023-12-28T21:34:27;3.40;99.90
46562;DHT22;32289;42.688;23.330;2023-12-28T21:38:08;3.30;99.90
46562;DHT22;32289;42.688;23.330;2023-12-28T21:41:49;3.10;99.90
46562;DHT22;32289;42.688;23.330;2023-12-28T21:45:32;3.20;99.90
46562;DHT22;32289;42.688;23.330;2023-12-28T21:49:14;3.00;99.90
46562;DHT22;32289;42.688;23.330;2023-12-28T21:52:55;2.70;99.90
46562;DHT22;32289;42.688;23.330;2023-12-28T21:56:37;2.90;99.90
46562;DHT22;32289;42.688;23.330;2023-12-28T22:00:18;2.70;99.90
46562;DHT22;32289;42.688;23.330;2023-12-28T22:03:59;2.60;99.90
46562;DHT22;32289;42.688;23.330;2023-12-28T22:07:42;2.70;99.90
46562;DHT22;32289;42.688;23.330;2023-12-28T22:11:23;2.70;99.90
46562;DHT22;32289;42.688;23.330;2023-12-28T22:15:04;2.70;99.90
46562;DHT22;32289;42.688;23.330;2023-12-28T22:18:44;2.80;99.90
46562;DHT22;32289;42.688;23.330;2023-12-28T22:22:28;2.80;99.90
46562;DHT22;32289;42.688;23.330;2023-12-28T22:26:09;2.80;99.90
46562;DHT22;32289;42.688;23.330;2023-12-28T22:29:50;2.80;99.90
46562;DHT22;32289;42.688;23.330;2023-12-28T22:33:30;2.70;99.90
46562;DHT22;32289;42.688;23.330;2023-12-28T22:37:11;2.80;99.90
46562;DHT22;32289;42.688;23.330;2023-12-28T22:40:52;2.80;99.90
46562;DHT22;32289;42.688;23.330;2023-12-28T22:44:32;2.70;99.90
46562;DHT22;32289;42.688;23.330;2023-12-28T22:48:14;2.50;99.90
46562;DHT22;32289;42.688;23.330;2023-12-28T22:51:59;2.30;99.90
46562;DHT22;32289;42.688;23.330;2023-12-28T22:55:40;2.20;99.90
46562;DHT22;32289;42.688;23.330;2023-12-28T22:59:21;2.30;99.90
46562;DHT22;32289;42.688;23.330;2023-12-28T23:03:06;2.40;99.90
46562;DHT22;32289;42.688;23.330;2023-12-28T23:06:46;2.40;99.90
46562;DHT22;32289;42.688;23.330;2023-12-28T23:10:30;2.10;99.90
46562;DHT22;32289;42.688;23.330;2023-12-28T23:14:13;1.90;99.90
46562;DHT22;32289;42.688;23.330;2023-12-28T23:17:57;1.90;99.90
46562;DHT22;32289;42.688;23.330;2023-12-28T23:21:39;2.00;99.90